sensor_id;sensor_type;location;lat;lon;timestamp;P1;durP1;ratioP1;P2;durP2;ratioP2
4389;SDS011;2209;48.982;8.406;2023-12-14T00:00:07;2.93;;;2.40;;
4389;SDS011;2209;48.982;8.406;2023-12-14T00:02:31;4.80;;;2.93;;
4389;SDS011;2209;48.982;8.406;2023-12-14T00:04:53;3.13;;;2.43;;
4389;SDS011;2209;48.982;8.406;2023-12-14T00:07:16;2.90;;;2.60;;
4389;SDS011;2209;48.982;8.406;2023-12-14T00:09:38;3.27;;;2.97;;
4389;SDS011;2209;48.982;8.406;2023-12-14T00:12:03;3.20;;;2.90;;
4389;SDS011;2209;48.982;8.406;2023-12-14T00:14:25;4.43;;;3.20;;
4389;SDS011;2209;48.982;8.406;2023-12-14T00:16:47;6.10;;;3.10;;
4389;SDS011;2209;48.982;8.406;2023-12-14T00:19:09;5.70;;;3.10;;
4389;SDS011;2209;48.982;8.406;2023-12-14T00:21:32;4.23;;;3.53;;
4389;SDS011;2209;48.982;8.406;2023-12-14T00:23:54;7.47;;;3.83;;
4389;SDS011;2209;48.982;8.406;2023-12-14T00:26:16;4.73;;;3.77;;
4389;SDS011;2209;48.982;8.406;2023-12-14T00:28:40;3.97;;;3.67;;
4389;SDS011;2209;48.982;8.406;2023-12-14T00:31:02;3.87;;;3.57;;
4389;SDS011;2209;48.982;8.406;2023-12-14T00:33:24;6.17;;;4.20;;
4389;SDS011;2209;48.982;8.406;2023-12-14T00:35:46;5.90;;;3.23;;
4389;SDS011;2209;48.982;8.406;2023-12-14T00:38:08;4.57;;;4.17;;
4389;SDS011;2209;48.982;8.406;2023-12-14T00:40:30;4.80;;;4.40;;
4389;SDS011;2209;48.982;8.406;2023-12-14T00:42:52;4.40;;;4.00;;
4389;SDS011;2209;48.982;8.406;2023-12-14T00:45:16;4.50;;;4.17;;
4389;SDS011;2209;48.982;8.406;2023-12-14T00:47:38;8.00;;;4.60;;
4389;SDS011;2209;48.982;8.406;2023-12-14T00:50:00;4.90;;;4.40;;
4389;SDS011;2209;48.982;8.406;2023-12-14T00:52:21;4.37;;;3.97;;
4389;SDS011;2209;48.982;8.406;2023-12-14T00:54:43;5.07;;;4.60;;
4389;SDS011;2209;48.982;8.406;2023-12-14T00:57:05;8.63;;;4.63;;
4389;SDS011;2209;48.982;8.406;2023-12-14T00:59:30;5.10;;;4.60;;
4389;SDS011;2209;48.982;8.406;2023-12-14T01:01:53;7.30;;;4.77;;
4389;SDS011;2209;48.982;8.406;2023-12-14T01:04:15;4.50;;;4.10;;
4389;SDS011;2209;48.982;8.406;2023-12-14T01:06:37;4.80;;;4.40;;
4389;SDS011;2209;48.982;8.406;2023-12-14T01:08:59;6.13;;;4.47;;
4389;SDS011;2209;48.982;8.406;2023-12-14T01:11:21;7.23;;;4.80;;
4389;SDS011;2209;48.982;8.406;2023-12-14T01:13:43;5.73;;;4.50;;
4389;SDS011;2209;48.982;8.406;2023-12-14T01:16:08;6.07;;;4.87;;
4389;SDS011;2209;48.982;8.406;2023-12-14T01:18:32;5.30;;;4.90;;
4389;SDS011;2209;48.982;8.406;2023-12-14T01:20:54;6.23;;;5.20;;
4389;SDS011;2209;48.982;8.406;2023-12-14T01:23:16;5.87;;;5.37;;
4389;SDS011;2209;48.982;8.406;2023-12-14T01:25:38;7.70;;;5.20;;
4389;SDS011;2209;48.982;8.406;2023-12-14T01:28:00;5.30;;;4.80;;
4389;SDS011;2209;48.982;8.406;2023-12-14T01:30:22;5.20;;;4.80;;
4389;SDS011;2209;48.982;8.406;2023-12-14T01:32:44;6.63;;;6.03;;
4389;SDS011;2209;48.982;8.406;2023-12-14T01:35:08;5.83;;;5.17;;
4389;SDS011;2209;48.982;8.406;2023-12-14T01:37:30;9.93;;;5.87;;
4389;SDS011;2209;48.982;8.406;2023-12-14T01:39:52;5.90;;;5.40;;
4389;SDS011;2209;48.982;8.406;2023-12-14T01:42:14;5.87;;;5.00;;
4389;SDS011;2209;48.982;8.406;2023-12-14T01:44:36;7.37;;;5.80;;
4389;SDS011;2209;48.982;8.406;2023-12-14T01:46:58;6.50;;;5.90;;
4389;SDS011;2209;48.982;8.406;2023-12-14T01:49:20;6.00;;;5.23;;
4389;SDS011;2209;48.982;8.406;2023-12-14T01:51:44;5.50;;;5.00;;
4389;SDS011;2209;48.982;8.406;2023-12-14T01:54:05;8.30;;;5.83;;
4389;SDS011;2209;48.982;8.406;2023-12-14T01:56:27;8.13;;;4.87;;
4389;SDS011;2209;48.982;8.406;2023-12-14T01:58:49;4.80;;;4.40;;
4389;SDS011;2209;48.982;8.406;2023-12-14T02:01:13;7.17;;;5.57;;
4389;SDS011;2209;48.982;8.406;2023-12-14T02:03:45;6.30;;;4.83;;
4389;SDS011;2209;48.982;8.406;2023-12-14T02:06:07;6.10;;;4.90;;
4389;SDS011;2209;48.982;8.406;2023-12-14T02:08:31;5.67;;;5.07;;
4389;SDS011;2209;48.982;8.406;2023-12-14T02:10:53;5.83;;;5.03;;
4389;SDS011;2209;48.982;8.406;2023-12-14T02:13:15;6.67;;;5.17;;
4389;SDS011;2209;48.982;8.406;2023-12-14T02:15:37;8.07;;;5.50;;
4389;SDS011;2209;48.982;8.406;2023-12-14T02:17:59;5.77;;;5.23;;
4389;SDS011;2209;48.982;8.406;2023-12-14T02:20:20;5.60;;;5.03;;
4389;SDS011;2209;48.982;8.406;2023-12-14T02:22:50;6.57;;;5.90;;
4389;SDS011;2209;48.982;8.406;2023-12-14T02:25:12;5.87;;;5.27;;
4389;SDS011;2209;48.982;8.406;2023-12-14T02:27:35;6.53;;;5.40;;
4389;SDS011;2209;48.982;8.406;2023-12-14T02:29:57;6.17;;;5.53;;
4389;SDS011;2209;48.982;8.406;2023-12-14T02:32:19;5.80;;;5.03;;
4389;SDS011;2209;48.982;8.406;2023-12-14T02:34:41;5.80;;;5.30;;
4389;SDS011;2209;48.982;8.406;2023-12-14T02:37:03;7.10;;;5.30;;
4389;SDS011;2209;48.982;8.406;2023-12-14T02:39:27;6.30;;;5.73;;
4389;SDS011;2209;48.982;8.406;2023-12-14T02:41:49;6.83;;;6.17;;
4389;SDS011;2209;48.982;8.406;2023-12-14T02:44:11;6.97;;;6.27;;
4389;SDS011;2209;48.982;8.406;2023-12-14T02:46:33;6.90;;;5.83;;
4389;SDS011;2209;48.982;8.406;2023-12-14T02:48:55;6.73;;;6.00;;
4389;SDS011;2209;48.982;8.406;2023-12-14T02:51:17;9.00;;;6.00;;
4389;SDS011;2209;48.982;8.406;2023-12-14T02:53:39;6.27;;;5.67;;
4389;SDS011;2209;48.982;8.406;2023-12-14T02:56:04;8.80;;;7.03;;
4389;SDS011;2209;48.982;8.406;2023-12-14T02:58:26;6.63;;;6.03;;
4389;SDS011;2209;48.982;8.406;2023-12-14T03:00:48;8.27;;;6.80;;
4389;SDS011;2209;48.982;8.406;2023-12-14T03:03:10;7.87;;;7.07;;
4389;SDS011;2209;48.982;8.406;2023-12-14T03:05:32;6.77;;;6.13;;
4389;SDS011;2209;48.982;8.406;2023-12-14T03:07:54;5.80;;;5.30;;
4389;SDS011;2209;48.982;8.406;2023-12-14T03:10:16;10.07;;;6.37;;
4389;SDS011;2209;48.982;8.406;2023-12-14T03:12:40;6.87;;;5.90;;
4389;SDS011;2209;48.982;8.406;2023-12-14T03:15:02;7.20;;;6.30;;
4389;SDS011;2209;48.982;8.406;2023-12-14T03:17:25;8.77;;;7.17;;
4389;SDS011;2209;48.982;8.406;2023-12-14T03:19:47;7.53;;;6.83;;
4389;SDS011;2209;48.982;8.406;2023-12-14T03:22:08;7.27;;;6.63;;
4389;SDS011;2209;48.982;8.406;2023-12-14T03:24:30;8.33;;;7.20;;
4389;SDS011;2209;48.982;8.406;2023-12-14T03:26:52;8.23;;;7.40;;
4389;SDS011;2209;48.982;8.406;2023-12-14T03:29:16;8.27;;;6.70;;
4389;SDS011;2209;48.982;8.406;2023-12-14T03:31:38;10.37;;;7.70;;
4389;SDS011;2209;48.982;8.406;2023-12-14T03:34:00;8.20;;;7.43;;
4389;SDS011;2209;48.982;8.406;2023-12-14T03:36:22;8.70;;;7.57;;
4389;SDS011;2209;48.982;8.406;2023-12-14T03:38:46;13.03;;;8.03;;
4389;SDS011;2209;48.982;8.406;2023-12-14T03:41:08;12.70;;;8.13;;
4389;SDS011;2209;48.982;8.406;2023-12-14T03:43:30;10.77;;;7.87;;
4389;SDS011;2209;48.982;8.406;2023-12-14T03:45:54;9.13;;;7.90;;
4389;SDS011;2209;48.982;8.406;2023-12-14T03:48:16;9.33;;;8.17;;
4389;SDS011;2209;48.982;8.406;2023-12-14T03:50:38;10.07;;;7.77;;
4389;SDS011;2209;48.982;8.406;2023-12-14T03:53:01;8.87;;;7.70;;
4389;SDS011;2209;48.982;8.406;2023-12-14T03:55:23;10.33;;;8.63;;
4389;SDS011;2209;48.982;8.406;2023-12-14T03:57:45;9.97;;;9.03;;
4389;SDS011;2209;48.982;8.406;2023-12-14T04:00:09;10.60;;;9.50;;
4389;SDS011;2209;48.982;8.406;2023-12-14T04:02:33;9.70;;;8.77;;
4389;SDS011;2209;48.982;8.406;2023-12-14T04:04:55;9.40;;;8.50;;
4389;SDS011;2209;48.982;8.406;2023-12-14T04:07:17;13.17;;;9.13;;
4389;SDS011;2209;48.982;8.406;2023-12-14T04:09:40;13.70;;;8.97;;
4389;SDS011;2209;48.982;8.406;2023-12-14T04:12:02;10.10;;;9.10;;
4389;SDS011;2209;48.982;8.406;2023-12-14T04:14:24;11.40;;;9.00;;
4389;SDS011;2209;48.982;8.406;2023-12-14T04:16:47;9.47;;;8.57;;
4389;SDS011;2209;48.982;8.406;2023-12-14T04:19:10;10.93;;;8.90;;
4389;SDS011;2209;48.982;8.406;2023-12-14T04:21:32;10.20;;;9.13;;
4389;SDS011;2209;48.982;8.406;2023-12-14T04:23:54;11.63;;;9.80;;
4389;SDS011;2209;48.982;8.406;2023-12-14T04:26:16;10.63;;;8.50;;
4389;SDS011;2209;48.982;8.406;2023-12-14T04:28:38;11.70;;;9.40;;
4389;SDS011;2209;48.982;8.406;2023-12-14T04:31:00;9.93;;;8.10;;
4389;SDS011;2209;48.982;8.406;2023-12-14T04:33:22;15.93;;;9.57;;
4389;SDS011;2209;48.982;8.406;2023-12-14T04:35:46;12.33;;;8.60;;
4389;SDS011;2209;48.982;8.406;2023-12-14T04:38:08;12.00;;;9.87;;
4389;SDS011;2209;48.982;8.406;2023-12-14T04:40:30;11.30;;;10.10;;
4389;SDS011;2209;48.982;8.406;2023-12-14T04:42:53;13.27;;;9.63;;
4389;SDS011;2209;48.982;8.406;2023-12-14T04:45:15;10.40;;;9.33;;
4389;SDS011;2209;48.982;8.406;2023-12-14T04:47:37;11.53;;;10.27;;
4389;SDS011;2209;48.982;8.406;2023-12-14T04:49:59;10.20;;;9.17;;
4389;SDS011;2209;48.982;8.406;2023-12-14T04:52:23;11.30;;;10.13;;
4389;SDS011;2209;48.982;8.406;2023-12-14T04:54:45;11.27;;;10.27;;
4389;SDS011;2209;48.982;8.406;2023-12-14T04:57:07;11.60;;;9.40;;
4389;SDS011;2209;48.982;8.406;2023-12-14T04:59:29;12.07;;;10.50;;
4389;SDS011;2209;48.982;8.406;2023-12-14T05:01:51;11.00;;;9.90;;
4389;SDS011;2209;48.982;8.406;2023-12-14T05:04:13;12.70;;;10.30;;
4389;SDS011;2209;48.982;8.406;2023-12-14T05:06:35;11.07;;;9.33;;
4389;SDS011;2209;48.982;8.406;2023-12-14T05:09:00;10.97;;;9.80;;
4389;SDS011;2209;48.982;8.406;2023-12-14T05:11:24;16.00;;;10.40;;
4389;SDS011;2209;48.982;8.406;2023-12-14T05:13:46;14.43;;;11.20;;
4389;SDS011;2209;48.982;8.406;2023-12-14T05:16:12;13.23;;;10.53;;
4389;SDS011;2209;48.982;8.406;2023-12-14T05:18:34;10.50;;;9.10;;
4389;SDS011;2209;48.982;8.406;2023-12-14T05:20:56;11.07;;;9.53;;
4389;SDS011;2209;48.982;8.406;2023-12-14T05:23:18;13.00;;;9.97;;
4389;SDS011;2209;48.982;8.406;2023-12-14T05:25:42;11.23;;;9.60;;
4389;SDS011;2209;48.982;8.406;2023-12-14T05:28:05;12.60;;;9.90;;
4389;SDS011;2209;48.982;8.406;2023-12-14T05:30:27;10.37;;;9.37;;
4389;SDS011;2209;48.982;8.406;2023-12-14T05:32:49;11.50;;;10.27;;
4389;SDS011;2209;48.982;8.406;2023-12-14T05:35:11;10.90;;;9.80;;
4389;SDS011;2209;48.982;8.406;2023-12-14T05:37:33;11.30;;;10.20;;
4389;SDS011;2209;48.982;8.406;2023-12-14T05:39:55;10.83;;;9.37;;
4389;SDS011;2209;48.982;8.406;2023-12-14T05:42:19;11.47;;;9.20;;
4389;SDS011;2209;48.982;8.406;2023-12-14T05:44:42;10.67;;;9.57;;
4389;SDS011;2209;48.982;8.406;2023-12-14T05:47:05;10.97;;;9.50;;
4389;SDS011;2209;48.982;8.406;2023-12-14T05:49:27;11.23;;;10.07;;
4389;SDS011;2209;48.982;8.406;2023-12-14T05:51:49;11.67;;;10.40;;
4389;SDS011;2209;48.982;8.406;2023-12-14T05:54:11;10.50;;;9.20;;
4389;SDS011;2209;48.982;8.406;2023-12-14T05:56:33;13.00;;;9.50;;
4389;SDS011;2209;48.982;8.406;2023-12-14T05:58:56;12.77;;;10.00;;
4389;SDS011;2209;48.982;8.406;2023-12-14T06:01:19;12.77;;;11.20;;
4389;SDS011;2209;48.982;8.406;2023-12-14T06:03:41;12.13;;;9.80;;
4389;SDS011;2209;48.982;8.406;2023-12-14T06:06:04;11.33;;;10.20;;
4389;SDS011;2209;48.982;8.406;2023-12-14T06:08:26;14.60;;;10.70;;
4389;SDS011;2209;48.982;8.406;2023-12-14T06:10:48;12.23;;;10.50;;
4389;SDS011;2209;48.982;8.406;2023-12-14T06:13:11;13.60;;;10.50;;
4389;SDS011;2209;48.982;8.406;2023-12-14T06:15:39;11.10;;;9.50;;
4389;SDS011;2209;48.982;8.406;2023-12-14T06:18:01;11.03;;;10.03;;
4389;SDS011;2209;48.982;8.406;2023-12-14T06:20:25;11.97;;;10.53;;
4389;SDS011;2209;48.982;8.406;2023-12-14T06:22:47;11.80;;;10.60;;
4389;SDS011;2209;48.982;8.406;2023-12-14T06:25:10;12.23;;;9.20;;
4389;SDS011;2209;48.982;8.406;2023-12-14T06:27:34;11.03;;;9.90;;
4389;SDS011;2209;48.982;8.406;2023-12-14T06:29:56;10.43;;;9.27;;
4389;SDS011;2209;48.982;8.406;2023-12-14T06:32:20;11.10;;;9.00;;
4389;SDS011;2209;48.982;8.406;2023-12-14T06:34:42;9.50;;;8.53;;
4389;SDS011;2209;48.982;8.406;2023-12-14T06:37:07;11.97;;;9.07;;
4389;SDS011;2209;48.982;8.406;2023-12-14T06:39:29;15.73;;;9.37;;
4389;SDS011;2209;48.982;8.406;2023-12-14T06:41:51;12.80;;;9.00;;
4389;SDS011;2209;48.982;8.406;2023-12-14T06:44:14;11.73;;;8.80;;
4389;SDS011;2209;48.982;8.406;2023-12-14T06:46:37;12.37;;;10.07;;
4389;SDS011;2209;48.982;8.406;2023-12-14T06:49:01;11.50;;;10.03;;
4389;SDS011;2209;48.982;8.406;2023-12-14T06:51:23;13.10;;;11.27;;
4389;SDS011;2209;48.982;8.406;2023-12-14T06:53:45;11.43;;;9.37;;
4389;SDS011;2209;48.982;8.406;2023-12-14T06:56:08;11.53;;;9.53;;
4389;SDS011;2209;48.982;8.406;2023-12-14T06:58:31;14.87;;;10.23;;
4389;SDS011;2209;48.982;8.406;2023-12-14T07:00:53;11.50;;;9.90;;
4389;SDS011;2209;48.982;8.406;2023-12-14T07:03:15;11.63;;;8.87;;
4389;SDS011;2209;48.982;8.406;2023-12-14T07:05:39;12.90;;;10.10;;
4389;SDS011;2209;48.982;8.406;2023-12-14T07:08:01;11.30;;;10.00;;
4389;SDS011;2209;48.982;8.406;2023-12-14T07:10:23;13.17;;;10.80;;
4389;SDS011;2209;48.982;8.406;2023-12-14T07:12:45;17.10;;;10.93;;
4389;SDS011;2209;48.982;8.406;2023-12-14T07:15:07;11.87;;;9.60;;
4389;SDS011;2209;48.982;8.406;2023-12-14T07:17:29;11.97;;;9.90;;
4389;SDS011;2209;48.982;8.406;2023-12-14T07:19:51;15.33;;;9.60;;
4389;SDS011;2209;48.982;8.406;2023-12-14T07:22:15;11.03;;;9.83;;
4389;SDS011;2209;48.982;8.406;2023-12-14T07:24:37;11.20;;;9.87;;
4389;SDS011;2209;48.982;8.406;2023-12-14T07:26:59;11.60;;;9.80;;
4389;SDS011;2209;48.982;8.406;2023-12-14T07:29:21;11.10;;;9.50;;
4389;SDS011;2209;48.982;8.406;2023-12-14T07:31:43;12.50;;;11.20;;
4389;SDS011;2209;48.982;8.406;2023-12-14T07:34:05;12.00;;;10.70;;
4389;SDS011;2209;48.982;8.406;2023-12-14T07:36:28;12.00;;;10.67;;
4389;SDS011;2209;48.982;8.406;2023-12-14T07:38:51;14.33;;;10.20;;
4389;SDS011;2209;48.982;8.406;2023-12-14T07:41:14;13.20;;;10.63;;
4389;SDS011;2209;48.982;8.406;2023-12-14T07:43:36;13.27;;;10.87;;
4389;SDS011;2209;48.982;8.406;2023-12-14T07:45:58;13.17;;;10.03;;
4389;SDS011;2209;48.982;8.406;2023-12-14T07:48:20;14.40;;;11.67;;
4389;SDS011;2209;48.982;8.406;2023-12-14T07:50:42;11.30;;;9.40;;
4389;SDS011;2209;48.982;8.406;2023-12-14T07:53:06;14.63;;;10.40;;
4389;SDS011;2209;48.982;8.406;2023-12-14T07:55:29;11.93;;;9.97;;
4389;SDS011;2209;48.982;8.406;2023-12-14T07:57:51;12.70;;;9.90;;
4389;SDS011;2209;48.982;8.406;2023-12-14T08:00:15;11.50;;;10.30;;
4389;SDS011;2209;48.982;8.406;2023-12-14T08:02:37;12.60;;;9.70;;
4389;SDS011;2209;48.982;8.406;2023-12-14T08:04:59;11.33;;;9.27;;
4389;SDS011;2209;48.982;8.406;2023-12-14T08:07:21;12.07;;;10.00;;
4389;SDS011;2209;48.982;8.406;2023-12-14T08:09:49;16.73;;;10.70;;
4389;SDS011;2209;48.982;8.406;2023-12-14T08:12:12;10.83;;;9.50;;
4389;SDS011;2209;48.982;8.406;2023-12-14T08:14:34;12.93;;;9.33;;
4389;SDS011;2209;48.982;8.406;2023-12-14T08:16:57;13.10;;;10.47;;
4389;SDS011;2209;48.982;8.406;2023-12-14T08:19:19;11.47;;;9.60;;
4389;SDS011;2209;48.982;8.406;2023-12-14T08:21:42;10.80;;;9.60;;
4389;SDS011;2209;48.982;8.406;2023-12-14T08:24:04;15.17;;;9.73;;
4389;SDS011;2209;48.982;8.406;2023-12-14T08:26:27;12.70;;;10.37;;
4389;SDS011;2209;48.982;8.406;2023-12-14T08:28:51;12.60;;;10.07;;
4389;SDS011;2209;48.982;8.406;2023-12-14T08:31:13;12.40;;;10.20;;
4389;SDS011;2209;48.982;8.406;2023-12-14T08:33:35;12.00;;;9.90;;
4389;SDS011;2209;48.982;8.406;2023-12-14T08:35:57;11.10;;;9.47;;
4389;SDS011;2209;48.982;8.406;2023-12-14T08:38:19;11.40;;;9.60;;
4389;SDS011;2209;48.982;8.406;2023-12-14T08:40:41;11.43;;;9.00;;
4389;SDS011;2209;48.982;8.406;2023-12-14T08:43:03;12.23;;;10.00;;
4389;SDS011;2209;48.982;8.406;2023-12-14T08:45:27;11.97;;;9.00;;
4389;SDS011;2209;48.982;8.406;2023-12-14T08:47:49;11.33;;;9.50;;
4389;SDS011;2209;48.982;8.406;2023-12-14T08:50:11;13.53;;;10.00;;
4389;SDS011;2209;48.982;8.406;2023-12-14T08:52:33;12.50;;;9.80;;
4389;SDS011;2209;48.982;8.406;2023-12-14T08:54:55;12.93;;;9.50;;
4389;SDS011;2209;48.982;8.406;2023-12-14T08:57:17;11.30;;;9.40;;
4389;SDS011;2209;48.982;8.406;2023-12-14T08:59:39;16.57;;;9.50;;
4389;SDS011;2209;48.982;8.406;2023-12-14T09:02:03;11.87;;;9.53;;
4389;SDS011;2209;48.982;8.406;2023-12-14T09:04:26;12.27;;;9.57;;
4389;SDS011;2209;48.982;8.406;2023-12-14T09:06:48;12.67;;;9.10;;
4389;SDS011;2209;48.982;8.406;2023-12-14T09:09:10;11.60;;;9.63;;
4389;SDS011;2209;48.982;8.406;2023-12-14T09:11:33;16.03;;;9.63;;
4389;SDS011;2209;48.982;8.406;2023-12-14T09:13:56;11.77;;;10.57;;
4389;SDS011;2209;48.982;8.406;2023-12-14T09:16:18;16.83;;;10.27;;
4389;SDS011;2209;48.982;8.406;2023-12-14T09:18:42;14.90;;;10.40;;
4389;SDS011;2209;48.982;8.406;2023-12-14T09:21:04;11.00;;;9.80;;
4389;SDS011;2209;48.982;8.406;2023-12-14T09:23:26;11.50;;;9.00;;
4389;SDS011;2209;48.982;8.406;2023-12-14T09:25:48;10.83;;;8.60;;
4389;SDS011;2209;48.982;8.406;2023-12-14T09:28:10;10.53;;;8.97;;
4389;SDS011;2209;48.982;8.406;2023-12-14T09:30:32;11.47;;;9.07;;
4389;SDS011;2209;48.982;8.406;2023-12-14T09:32:55;11.13;;;9.50;;
4389;SDS011;2209;48.982;8.406;2023-12-14T09:35:18;11.17;;;8.47;;
4389;SDS011;2209;48.982;8.406;2023-12-14T09:37:40;10.67;;;9.30;;
4389;SDS011;2209;48.982;8.406;2023-12-14T09:40:03;9.33;;;8.00;;
4389;SDS011;2209;48.982;8.406;2023-12-14T09:42:26;9.47;;;8.30;;
4389;SDS011;2209;48.982;8.406;2023-12-14T09:44:48;8.80;;;7.90;;
4389;SDS011;2209;48.982;8.406;2023-12-14T09:47:11;10.77;;;8.93;;
4389;SDS011;2209;48.982;8.406;2023-12-14T09:49:34;10.73;;;8.40;;
4389;SDS011;2209;48.982;8.406;2023-12-14T09:51:59;10.90;;;7.93;;
4389;SDS011;2209;48.982;8.406;2023-12-14T09:54:21;9.40;;;8.40;;
4389;SDS011;2209;48.982;8.406;2023-12-14T09:56:45;14.33;;;9.97;;
4389;SDS011;2209;48.982;8.406;2023-12-14T09:59:08;10.50;;;9.00;;
4389;SDS011;2209;48.982;8.406;2023-12-14T10:01:30;14.33;;;9.70;;
4389;SDS011;2209;48.982;8.406;2023-12-14T10:04:06;13.20;;;9.40;;
4389;SDS011;2209;48.982;8.406;2023-12-14T10:06:29;10.03;;;9.00;;
4389;SDS011;2209;48.982;8.406;2023-12-14T10:08:56;10.30;;;8.70;;
4389;SDS011;2209;48.982;8.406;2023-12-14T10:11:18;9.80;;;8.57;;
4389;SDS011;2209;48.982;8.406;2023-12-14T10:13:40;10.80;;;8.40;;
4389;SDS011;2209;48.982;8.406;2023-12-14T10:16:02;12.30;;;8.40;;
4389;SDS011;2209;48.982;8.406;2023-12-14T10:18:25;10.83;;;8.73;;
4389;SDS011;2209;48.982;8.406;2023-12-14T10:20:48;11.97;;;8.40;;
4389;SDS011;2209;48.982;8.406;2023-12-14T10:23:11;9.40;;;8.43;;
4389;SDS011;2209;48.982;8.406;2023-12-14T10:25:35;11.30;;;8.67;;
4389;SDS011;2209;48.982;8.406;2023-12-14T10:27:57;10.17;;;8.20;;
4389;SDS011;2209;48.982;8.406;2023-12-14T10:30:20;9.03;;;8.13;;
4389;SDS011;2209;48.982;8.406;2023-12-14T10:32:42;9.90;;;7.83;;
4389;SDS011;2209;48.982;8.406;2023-12-14T10:35:05;12.47;;;8.80;;
4389;SDS011;2209;48.982;8.406;2023-12-14T10:37:27;10.53;;;7.90;;
4389;SDS011;2209;48.982;8.406;2023-12-14T10:39:51;9.50;;;7.93;;
4389;SDS011;2209;48.982;8.406;2023-12-14T10:42:17;10.73;;;8.17;;
4389;SDS011;2209;48.982;8.406;2023-12-14T10:44:41;10.50;;;7.97;;
4389;SDS011;2209;48.982;8.406;2023-12-14T10:47:04;8.33;;;7.53;;
4389;SDS011;2209;48.982;8.406;2023-12-14T10:49:28;9.57;;;7.87;;
4389;SDS011;2209;48.982;8.406;2023-12-14T10:51:51;11.37;;;9.17;;
4389;SDS011;2209;48.982;8.406;2023-12-14T10:54:15;10.30;;;7.73;;
4389;SDS011;2209;48.982;8.406;2023-12-14T10:56:39;9.40;;;8.37;;
4389;SDS011;2209;48.982;8.406;2023-12-14T10:59:03;10.03;;;7.90;;
4389;SDS011;2209;48.982;8.406;2023-12-14T11:01:25;12.63;;;8.73;;
4389;SDS011;2209;48.982;8.406;2023-12-14T11:03:50;8.10;;;7.30;;
4389;SDS011;2209;48.982;8.406;2023-12-14T11:06:20;8.33;;;7.50;;
4389;SDS011;2209;48.982;8.406;2023-12-14T11:08:50;9.87;;;8.57;;
4389;SDS011;2209;48.982;8.406;2023-12-14T11:11:15;9.30;;;8.07;;
4389;SDS011;2209;48.982;8.406;2023-12-14T11:13:40;8.43;;;7.63;;
4389;SDS011;2209;48.982;8.406;2023-12-14T11:16:07;8.87;;;7.97;;
4389;SDS011;2209;48.982;8.406;2023-12-14T11:18:30;10.83;;;8.40;;
4389;SDS011;2209;48.982;8.406;2023-12-14T11:20:54;10.53;;;9.53;;
4389;SDS011;2209;48.982;8.406;2023-12-14T11:23:17;12.83;;;8.33;;
4389;SDS011;2209;48.982;8.406;2023-12-14T11:25:51;10.50;;;9.23;;
4389;SDS011;2209;48.982;8.406;2023-12-14T11:28:14;11.27;;;9.10;;
4389;SDS011;2209;48.982;8.406;2023-12-14T11:30:37;9.63;;;8.20;;
4389;SDS011;2209;48.982;8.406;2023-12-14T11:33:02;10.60;;;8.97;;
4389;SDS011;2209;48.982;8.406;2023-12-14T11:35:24;10.40;;;8.93;;
4389;SDS011;2209;48.982;8.406;2023-12-14T11:37:47;13.57;;;9.40;;
4389;SDS011;2209;48.982;8.406;2023-12-14T11:40:12;10.60;;;9.37;;
4389;SDS011;2209;48.982;8.406;2023-12-14T11:42:36;10.90;;;9.37;;
4389;SDS011;2209;48.982;8.406;2023-12-14T11:44:58;13.67;;;10.23;;
4389;SDS011;2209;48.982;8.406;2023-12-14T11:47:20;11.13;;;9.33;;
4389;SDS011;2209;48.982;8.406;2023-12-14T11:49:45;9.10;;;8.20;;
4389;SDS011;2209;48.982;8.406;2023-12-14T11:52:08;14.00;;;9.07;;
4389;SDS011;2209;48.982;8.406;2023-12-14T11:54:30;10.83;;;9.57;;
4389;SDS011;2209;48.982;8.406;2023-12-14T11:56:52;11.53;;;9.87;;
4389;SDS011;2209;48.982;8.406;2023-12-14T11:59:14;11.53;;;10.23;;
4389;SDS011;2209;48.982;8.406;2023-12-14T12:01:37;13.57;;;10.30;;
4389;SDS011;2209;48.982;8.406;2023-12-14T12:04:07;10.70;;;9.33;;
4389;SDS011;2209;48.982;8.406;2023-12-14T12:06:31;12.50;;;9.80;;
4389;SDS011;2209;48.982;8.406;2023-12-14T12:08:53;16.87;;;11.13;;
4389;SDS011;2209;48.982;8.406;2023-12-14T12:11:16;11.97;;;9.50;;
4389;SDS011;2209;48.982;8.406;2023-12-14T12:13:38;11.80;;;9.93;;
4389;SDS011;2209;48.982;8.406;2023-12-14T12:16:01;10.90;;;9.27;;
4389;SDS011;2209;48.982;8.406;2023-12-14T12:18:23;14.40;;;9.87;;
4389;SDS011;2209;48.982;8.406;2023-12-14T12:20:46;12.20;;;10.53;;
4389;SDS011;2209;48.982;8.406;2023-12-14T12:23:09;12.00;;;10.03;;
4389;SDS011;2209;48.982;8.406;2023-12-14T12:25:32;10.63;;;9.50;;
4389;SDS011;2209;48.982;8.406;2023-12-14T12:27:55;10.80;;;8.20;;
4389;SDS011;2209;48.982;8.406;2023-12-14T12:30:17;11.50;;;9.23;;
4389;SDS011;2209;48.982;8.406;2023-12-14T12:32:39;11.93;;;9.23;;
4389;SDS011;2209;48.982;8.406;2023-12-14T12:35:02;12.40;;;9.60;;
4389;SDS011;2209;48.982;8.406;2023-12-14T12:37:24;11.17;;;9.67;;
4389;SDS011;2209;48.982;8.406;2023-12-14T12:39:48;13.63;;;9.73;;
4389;SDS011;2209;48.982;8.406;2023-12-14T12:42:10;9.67;;;8.33;;
4389;SDS011;2209;48.982;8.406;2023-12-14T12:44:33;10.90;;;8.20;;
4389;SDS011;2209;48.982;8.406;2023-12-14T12:46:55;11.00;;;9.03;;
4389;SDS011;2209;48.982;8.406;2023-12-14T12:49:20;10.87;;;9.40;;
4389;SDS011;2209;48.982;8.406;2023-12-14T12:51:42;10.10;;;8.27;;
4389;SDS011;2209;48.982;8.406;2023-12-14T12:54:04;10.43;;;8.97;;
4389;SDS011;2209;48.982;8.406;2023-12-14T12:56:28;10.77;;;8.00;;
4389;SDS011;2209;48.982;8.406;2023-12-14T12:58:50;11.63;;;8.67;;
4389;SDS011;2209;48.982;8.406;2023-12-14T13:01:14;8.63;;;7.73;;
4389;SDS011;2209;48.982;8.406;2023-12-14T13:03:36;10.87;;;8.87;;
4389;SDS011;2209;48.982;8.406;2023-12-14T13:05:58;8.73;;;7.83;;
4389;SDS011;2209;48.982;8.406;2023-12-14T13:08:20;10.70;;;8.70;;
4389;SDS011;2209;48.982;8.406;2023-12-14T13:10:42;7.93;;;7.13;;
4389;SDS011;2209;48.982;8.406;2023-12-14T13:13:06;7.93;;;7.10;;
4389;SDS011;2209;48.982;8.406;2023-12-14T13:15:29;10.97;;;7.70;;
4389;SDS011;2209;48.982;8.406;2023-12-14T13:17:51;9.97;;;7.67;;
4389;SDS011;2209;48.982;8.406;2023-12-14T13:20:13;11.50;;;8.00;;
4389;SDS011;2209;48.982;8.406;2023-12-14T13:22:36;10.27;;;8.50;;
4389;SDS011;2209;48.982;8.406;2023-12-14T13:24:58;9.27;;;7.50;;
4389;SDS011;2209;48.982;8.406;2023-12-14T13:27:20;11.13;;;8.10;;
4389;SDS011;2209;48.982;8.406;2023-12-14T13:29:45;8.77;;;7.63;;
4389;SDS011;2209;48.982;8.406;2023-12-14T13:32:08;8.83;;;6.80;;
4389;SDS011;2209;48.982;8.406;2023-12-14T13:34:30;7.87;;;7.07;;
4389;SDS011;2209;48.982;8.406;2023-12-14T13:36:53;9.93;;;7.50;;
4389;SDS011;2209;48.982;8.406;2023-12-14T13:39:15;8.03;;;7.23;;
4389;SDS011;2209;48.982;8.406;2023-12-14T13:41:37;8.60;;;6.83;;
4389;SDS011;2209;48.982;8.406;2023-12-14T13:44:00;8.83;;;7.03;;
4389;SDS011;2209;48.982;8.406;2023-12-14T13:46:26;7.60;;;6.80;;
4389;SDS011;2209;48.982;8.406;2023-12-14T13:49:19;7.10;;;6.50;;
4389;SDS011;2209;48.982;8.406;2023-12-14T13:51:53;8.10;;;7.20;;
4389;SDS011;2209;48.982;8.406;2023-12-14T13:54:16;7.70;;;6.77;;
4389;SDS011;2209;48.982;8.406;2023-12-14T13:56:41;10.90;;;7.27;;
4389;SDS011;2209;48.982;8.406;2023-12-14T13:59:06;7.80;;;6.90;;
4389;SDS011;2209;48.982;8.406;2023-12-14T14:01:49;9.73;;;6.80;;
4389;SDS011;2209;48.982;8.406;2023-12-14T14:08:03;10.43;;;7.13;;
4389;SDS011;2209;48.982;8.406;2023-12-14T14:10:41;8.40;;;7.23;;
4389;SDS011;2209;48.982;8.406;2023-12-14T14:13:03;8.53;;;7.23;;
4389;SDS011;2209;48.982;8.406;2023-12-14T14:15:25;6.80;;;6.10;;
4389;SDS011;2209;48.982;8.406;2023-12-14T14:17:49;8.33;;;6.73;;
4389;SDS011;2209;48.982;8.406;2023-12-14T14:20:12;6.83;;;6.23;;
4389;SDS011;2209;48.982;8.406;2023-12-14T14:22:35;7.33;;;6.60;;
4389;SDS011;2209;48.982;8.406;2023-12-14T14:24:58;7.77;;;6.90;;
4389;SDS011;2209;48.982;8.406;2023-12-14T14:27:23;7.40;;;6.37;;
4389;SDS011;2209;48.982;8.406;2023-12-14T14:29:47;7.83;;;6.13;;
4389;SDS011;2209;48.982;8.406;2023-12-14T14:32:09;6.90;;;5.60;;
4389;SDS011;2209;48.982;8.406;2023-12-14T14:34:37;7.33;;;6.33;;
4389;SDS011;2209;48.982;8.406;2023-12-14T14:36:59;9.73;;;6.17;;
4389;SDS011;2209;48.982;8.406;2023-12-14T14:39:21;7.03;;;6.23;;
4389;SDS011;2209;48.982;8.406;2023-12-14T14:41:43;7.77;;;5.70;;